• Join FlightAware (Why Join?)
  • Login
  • US Flag 
08:01PM EDT


 

Airport Tracker/Info


-or-


 

Live Flight TrackerFlight Track Log ✈ FSR411 ✈ 22-Aug-2013 ✈ KCID - KMSP

Flight Track Log - Related Links

Times and Time Zones

All times are in EDT time to prevent confusion due to time zone crossing. See the FSR411 flight status page for this flight to view local times or setup timezone preferences in your user account.

Time Position Orientation Groundspeed Altitude Reporting Facility
EDT Latitude Longitude Course Direction KTS MPH feet Rate Location/Type
11:10AM 41.8953 -91.6306 340° North 214 246 4,600  Level Chicago Center
11:12AM 41.9236 -91.6775 309° West 174 200 7,200 2,220 Climbing Chicago Center
11:13AM 41.9572 -91.7481 303° West 220 253 9,300 1,860 Climbing Chicago Center
11:14AM 42.0406 -91.7944 338° Northwest 327 376 11,100 2,160 Climbing Chicago Center
11:15AM 42.1264 -91.8614 330° Northwest 356 410 13,800 2,580 Climbing Chicago Center
11:16AM 42.7810 -92.1397 340° North  Level FlightAware Approximate
11:16AM 42.1911 -91.9444 316° Northwest 331 381 16,500  Level Chicago Center
11:17AM 42.2625 -92.0325 318° Northwest 341 392 18,200 1,680 Climbing Chicago Center
11:18AM 42.3625 -92.1575 317° Northwest 404 465 20,000 840 Climbing Chicago Center
11:19AM 42.4503 -92.2669 317° Northwest 425 489 20,000  Level Chicago Center
11:20AM 42.5358 -92.3719 318° Northwest 418 481 20,000  Level Chicago Center
11:21AM 42.6236 -92.4608 323° Northwest 400 460 20,000  Level Chicago Center
11:22AM 42.7183 -92.5481 326° Northwest 408 470 20,000  Level Chicago Center
11:23AM 42.8092 -92.6314 326° Northwest 400 460 20,000  Level Minneapolis Center
11:24AM 42.8994 -92.7161 326° Northwest 396 456 20,000  Level Minneapolis Center
11:25AM 42.9917 -92.8019 326° Northwest 401 461 20,000  Level Minneapolis Center
11:26AM 43.1031 -92.9053 326° Northwest 405 466 20,000  Level Minneapolis Center
11:27AM 43.1958 -92.9917 326° Northwest 405 466 20,000  Level Minneapolis Center
11:28AM 43.2869 -93.0775 326° Northwest 402 463 20,000  Level Minneapolis Center
11:29AM 43.3950 -93.0997 352° North 398 458 20,000  Level Minneapolis Center
11:30AM 43.4842 -93.1114 355° North 402 463 20,000  Level Minneapolis Center
11:31AM 43.6206 -93.1331 353° North 411 473 20,000 -420 Level Minneapolis Center
11:32AM 43.7483 -93.1517 354° North 419 482 19,200 -1,500 Descending Minneapolis Center
11:33AM 43.8611 -93.1667 355° North 413 475 17,000 -2,160 Descending Minneapolis Center
11:34AM 43.9664 -93.1822 354° North 387 445 14,800 -2,280 Descending Minneapolis Center
11:35AM 44.0864 -93.2014 353° North 365 420 12,300 -2,220 Descending Minneapolis Center
11:36AM 44.1814 -93.2150 354° North 346 398 10,300 -1,140 Descending Minneapolis Center
11:37AM 44.2772 -93.2208 358° North 345 397 10,000 -180 Descending Minneapolis Center
11:38AM 44.3697 -93.2075 North 334 384 10,000  Level Minneapolis Center
11:39AM 44.4636 -93.1992 North 339 390 10,000  Level Minneapolis Center
11:40AM 44.5592 -93.1894 North 345 397 10,000 -60 Level Minneapolis Center
11:41AM 44.6378 -93.1858 North 287 330 9,900 -960 Descending Minneapolis Center
11:42AM 44.7244 -93.2392 336° Northwest 281 323 8,100 -960 Descending Minneapolis Center
11:43AM 44.7794 -93.2744 336° Northwest 259 298 8,000 -120 Descending Minneapolis Center
11:44AM 44.8308 -93.3439 316° Northwest 228 262 7,900 -540 Descending Minneapolis Center
11:45AM 44.8611 -93.4253 298° West 235 270 7,000 -960 Descending Minneapolis Center
11:46AM 44.8994 -93.4933 309° West 227 261 6,000 -1,440 Descending Minneapolis Center
11:47AM 44.9472 -93.4456 35° Northeast 220 253 4,100 -1,020 Descending Minneapolis Center
11:48AM 44.9461 -93.3767 91° East 172 198 4,000 -540 Descending Minneapolis Center
11:50AM 44.9286 -93.3247 115° Southeast 147 169 3,000 -1,080 Descending Minneapolis Center
11:51AM 44.9089 -93.2836 124° Southeast 130 150 1,800 -1,200 Descending Minneapolis Center
11:53AM 44.8820 -93.2218 North  Level Estimated
12:00PM 44.8820 -93.2218 North  Level Estimated